Terminal Aerodrome Forecast
Issued by NWS

Home | Current Version | Previous Version | Text Only | Print | Product List | Glossary On
Versions: 1 2 3 4 5 6 7 8 9 10 11 12 13 14 15 16 17 18
461
FTUS43 KLSX 191343 AAA
TAFCPS
TAF AMD
KCPS 191343Z 1914/2012 VRB03KT 4SM BR FEW250
      TEMPO 1914/1915 1/4SM FG
     FM191500 VRB03KT 6SM BR SCT020
     FM191600 15006KT P6SM SCT250
     FM200900 16007KT P6SM BKN090=

USA.gov is the U.S. government's official web portal to all federal, state and local government web resources and services.